Hauptseite
METAR-TAF:

METAR-TAF

Flughäfen :

Flughafen Madrid-Barajas

Madrid, Spanien

Breite: 40-27N, Länge: 003-33W, Höhe: 609 m

Beobachtung

Neuester Wetterbericht von vor 29 Minuten, um 14:00 UTC
Wind 1 kt aus Ost/Südost
Temperatur 15°C
Luftfeuchtigkeit 44%
Luftdruck 1024 hPa
Sichtweite 10 km oder mehr
keine Wolken unter 1500 m und keine Kumulonimbus oder Gewitterwolken

METAR: LEMD 201400Z 11001KT CAVOK 15/03 Q1024 NOSIG

Zeit: 15:29 (14:29 UTC)

Prognose

Neuester Wetterbericht von vor 3 Stunden und 29 Minuten, um 11:00 UTC
Gültige Prognose vom 20 um 12 UTC bis 21 um 18 UTC
Wind 4 kt aus unterschiedlichen Richtungen
Sichtweite 10 km oder mehr
keine Wolken unter 1500 m und keine Kumulonimbus oder Gewitterwolken
Zeitweise
vom 21 um 00 UTC bis 21 um 10 UTC
Wind 10 kt aus Nord/Nordost

TAF: LEMD 201100Z 2012/2118 VRB04KT CAVOK TX17/2016Z TN01/2106Z TEMPO 2100/2110 03010KT

Wetterbeobachtungen und Prognosen von mehr als 4000 Flughäfen (METAR und TAF Bericht).

Die verfügbaren Stationen werden durch gelbe und rote Markierungen auf der Karte dargestellt.

Führen Sie die Maus auf sie, um den Namen der Station zu sehen.

Darauf klicken, um die Beobachtung von Wetterbeobachtungen und Prognosen zu sehen.

Um die Karte zu ändern : klicken Sie auf den grünen Tasten mit einem schwarzen Kreuz Zum Vergrößern, auf den grünen Button mit einem Gedankenstrich zu verkleinern, oder auf die grünen Pfeile für benachbarte Karten.


METAR-TAF: